sensor_id;sensor_type;location;lat;lon;timestamp;P1;durP1;ratioP1;P2;durP2;ratioP2
37831;SDS011;23671;38.090;-122.570;2023-04-23T00:01:15;2.45;;;1.13;;
37831;SDS011;23671;38.090;-122.570;2023-04-23T00:03:44;8.43;;;1.63;;
37831;SDS011;23671;38.090;-122.570;2023-04-23T00:06:14;4.85;;;1.75;;
37831;SDS011;23671;38.090;-122.570;2023-04-23T00:08:42;7.88;;;1.88;;
37831;SDS011;23671;38.090;-122.570;2023-04-23T00:11:09;6.18;;;1.52;;
37831;SDS011;23671;38.090;-122.570;2023-04-23T00:13:36;5.07;;;1.30;;
37831;SDS011;23671;38.090;-122.570;2023-04-23T00:16:04;3.58;;;1.38;;
37831;SDS011;23671;38.090;-122.570;2023-04-23T00:18:31;6.10;;;1.60;;
37831;SDS011;23671;38.090;-122.570;2023-04-23T00:20:58;6.70;;;1.58;;
37831;SDS011;23671;38.090;-122.570;2023-04-23T00:23:26;8.30;;;1.90;;
37831;SDS011;23671;38.090;-122.570;2023-04-23T00:25:54;8.98;;;1.90;;
37831;SDS011;23671;38.090;-122.570;2023-04-23T00:28:21;9.10;;;2.47;;
37831;SDS011;23671;38.090;-122.570;2023-04-23T00:30:48;6.15;;;1.80;;
37831;SDS011;23671;38.090;-122.570;2023-04-23T00:33:15;4.68;;;1.75;;
37831;SDS011;23671;38.090;-122.570;2023-04-23T00:35:42;6.65;;;1.88;;
37831;SDS011;23671;38.090;-122.570;2023-04-23T00:38:09;8.00;;;2.40;;
37831;SDS011;23671;38.090;-122.570;2023-04-23T00:40:36;6.40;;;1.98;;
37831;SDS011;23671;38.090;-122.570;2023-04-23T00:43:04;6.15;;;2.10;;
37831;SDS011;23671;38.090;-122.570;2023-04-23T00:45:32;7.18;;;2.03;;
37831;SDS011;23671;38.090;-122.570;2023-04-23T00:47:59;5.95;;;1.88;;
37831;SDS011;23671;38.090;-122.570;2023-04-23T00:50:28;6.25;;;1.80;;
37831;SDS011;23671;38.090;-122.570;2023-04-23T00:52:55;6.45;;;1.75;;
37831;SDS011;23671;38.090;-122.570;2023-04-23T00:55:22;7.55;;;2.22;;
37831;SDS011;23671;38.090;-122.570;2023-04-23T00:57:49;6.35;;;2.00;;
37831;SDS011;23671;38.090;-122.570;2023-04-23T01:00:16;8.93;;;2.45;;
37831;SDS011;23671;38.090;-122.570;2023-04-23T01:02:44;5.93;;;1.80;;
37831;SDS011;23671;38.090;-122.570;2023-04-23T01:05:15;7.63;;;2.22;;
37831;SDS011;23671;38.090;-122.570;2023-04-23T01:07:43;5.13;;;1.87;;
37831;SDS011;23671;38.090;-122.570;2023-04-23T01:10:11;7.35;;;1.95;;
37831;SDS011;23671;38.090;-122.570;2023-04-23T01:12:38;7.13;;;1.90;;
37831;SDS011;23671;38.090;-122.570;2023-04-23T01:15:05;7.60;;;2.45;;
37831;SDS011;23671;38.090;-122.570;2023-04-23T01:17:33;4.25;;;1.95;;
37831;SDS011;23671;38.090;-122.570;2023-04-23T01:20:00;6.70;;;1.85;;
37831;SDS011;23671;38.090;-122.570;2023-04-23T01:22:27;9.05;;;2.20;;
37831;SDS011;23671;38.090;-122.570;2023-04-23T01:24:54;6.30;;;1.83;;
37831;SDS011;23671;38.090;-122.570;2023-04-23T01:27:21;7.93;;;1.67;;
37831;SDS011;23671;38.090;-122.570;2023-04-23T01:29:49;6.47;;;2.25;;
37831;SDS011;23671;38.090;-122.570;2023-04-23T01:32:16;6.07;;;1.63;;
37831;SDS011;23671;38.090;-122.570;2023-04-23T01:34:45;8.73;;;2.20;;
37831;SDS011;23671;38.090;-122.570;2023-04-23T01:37:12;7.40;;;2.10;;
37831;SDS011;23671;38.090;-122.570;2023-04-23T01:39:41;5.10;;;1.65;;
37831;SDS011;23671;38.090;-122.570;2023-04-23T01:42:08;7.63;;;2.53;;
37831;SDS011;23671;38.090;-122.570;2023-04-23T01:44:35;6.10;;;1.65;;
37831;SDS011;23671;38.090;-122.570;2023-04-23T01:47:02;6.05;;;2.00;;
37831;SDS011;23671;38.090;-122.570;2023-04-23T01:49:30;7.35;;;2.30;;
37831;SDS011;23671;38.090;-122.570;2023-04-23T01:51:57;5.80;;;1.75;;
37831;SDS011;23671;38.090;-122.570;2023-04-23T01:54:24;4.28;;;1.80;;
37831;SDS011;23671;38.090;-122.570;2023-04-23T01:56:51;6.53;;;1.90;;
37831;SDS011;23671;38.090;-122.570;2023-04-23T02:01:47;6.47;;;2.20;;
37831;SDS011;23671;38.090;-122.570;2023-04-23T02:04:14;4.00;;;1.75;;
37831;SDS011;23671;38.090;-122.570;2023-04-23T02:06:44;5.70;;;2.00;;
37831;SDS011;23671;38.090;-122.570;2023-04-23T02:09:13;7.68;;;2.33;;
37831;SDS011;23671;38.090;-122.570;2023-04-23T02:11:41;5.93;;;1.98;;
37831;SDS011;23671;38.090;-122.570;2023-04-23T02:14:08;4.60;;;1.45;;
37831;SDS011;23671;38.090;-122.570;2023-04-23T02:16:35;8.15;;;2.00;;
37831;SDS011;23671;38.090;-122.570;2023-04-23T02:19:03;5.30;;;2.07;;
37831;SDS011;23671;38.090;-122.570;2023-04-23T02:21:30;5.00;;;1.77;;
37831;SDS011;23671;38.090;-122.570;2023-04-23T02:23:57;6.03;;;2.08;;
37831;SDS011;23671;38.090;-122.570;2023-04-23T02:26:24;7.45;;;2.13;;
37831;SDS011;23671;38.090;-122.570;2023-04-23T02:28:53;8.30;;;2.28;;
37831;SDS011;23671;38.090;-122.570;2023-04-23T02:31:20;8.18;;;2.17;;
37831;SDS011;23671;38.090;-122.570;2023-04-23T02:33:47;3.47;;;1.63;;
37831;SDS011;23671;38.090;-122.570;2023-04-23T02:36:15;8.18;;;2.38;;
37831;SDS011;23671;38.090;-122.570;2023-04-23T02:38:42;7.07;;;1.92;;
37831;SDS011;23671;38.090;-122.570;2023-04-23T02:41:10;8.95;;;2.22;;
37831;SDS011;23671;38.090;-122.570;2023-04-23T02:43:37;6.65;;;1.83;;
37831;SDS011;23671;38.090;-122.570;2023-04-23T02:46:04;6.63;;;2.10;;
37831;SDS011;23671;38.090;-122.570;2023-04-23T02:48:40;5.47;;;1.60;;
37831;SDS011;23671;38.090;-122.570;2023-04-23T02:51:09;6.30;;;2.30;;
37831;SDS011;23671;38.090;-122.570;2023-04-23T02:53:37;6.95;;;2.03;;
37831;SDS011;23671;38.090;-122.570;2023-04-23T02:56:05;4.93;;;1.77;;
37831;SDS011;23671;38.090;-122.570;2023-04-23T02:58:32;6.55;;;1.92;;
37831;SDS011;23671;38.090;-122.570;2023-04-23T03:00:59;4.38;;;1.73;;
37831;SDS011;23671;38.090;-122.570;2023-04-23T03:03:26;6.43;;;1.80;;
37831;SDS011;23671;38.090;-122.570;2023-04-23T03:05:56;5.10;;;1.83;;
37831;SDS011;23671;38.090;-122.570;2023-04-23T03:08:23;5.25;;;1.77;;
37831;SDS011;23671;38.090;-122.570;2023-04-23T03:10:50;8.65;;;1.98;;
37831;SDS011;23671;38.090;-122.570;2023-04-23T03:13:17;8.27;;;1.80;;
37831;SDS011;23671;38.090;-122.570;2023-04-23T03:15:44;5.90;;;1.83;;
37831;SDS011;23671;38.090;-122.570;2023-04-23T03:18:11;5.22;;;2.05;;
37831;SDS011;23671;38.090;-122.570;2023-04-23T03:20:38;3.42;;;1.77;;
37831;SDS011;23671;38.090;-122.570;2023-04-23T03:23:05;4.45;;;1.70;;
37831;SDS011;23671;38.090;-122.570;2023-04-23T03:25:32;3.22;;;1.60;;
37831;SDS011;23671;38.090;-122.570;2023-04-23T03:28:00;4.85;;;2.08;;
37831;SDS011;23671;38.090;-122.570;2023-04-23T03:30:27;5.70;;;1.92;;
37831;SDS011;23671;38.090;-122.570;2023-04-23T03:32:55;4.63;;;1.75;;
37831;SDS011;23671;38.090;-122.570;2023-04-23T03:35:23;5.35;;;1.73;;
37831;SDS011;23671;38.090;-122.570;2023-04-23T03:37:53;4.95;;;1.83;;
37831;SDS011;23671;38.090;-122.570;2023-04-23T03:40:20;4.60;;;2.03;;
37831;SDS011;23671;38.090;-122.570;2023-04-23T03:42:47;6.18;;;1.92;;
37831;SDS011;23671;38.090;-122.570;2023-04-23T03:45:14;6.18;;;1.40;;
37831;SDS011;23671;38.090;-122.570;2023-04-23T03:47:42;6.05;;;1.95;;
37831;SDS011;23671;38.090;-122.570;2023-04-23T03:50:09;4.88;;;1.55;;
37831;SDS011;23671;38.090;-122.570;2023-04-23T03:52:39;7.18;;;2.05;;
37831;SDS011;23671;38.090;-122.570;2023-04-23T03:55:06;8.18;;;1.67;;
37831;SDS011;23671;38.090;-122.570;2023-04-23T03:57:37;3.42;;;1.80;;
37831;SDS011;23671;38.090;-122.570;2023-04-23T04:00:04;4.97;;;1.42;;
37831;SDS011;23671;38.090;-122.570;2023-04-23T04:02:39;4.68;;;1.80;;
37831;SDS011;23671;38.090;-122.570;2023-04-23T04:05:06;5.85;;;1.67;;
37831;SDS011;23671;38.090;-122.570;2023-04-23T04:07:35;6.15;;;1.80;;
37831;SDS011;23671;38.090;-122.570;2023-04-23T04:10:03;7.38;;;1.65;;
37831;SDS011;23671;38.090;-122.570;2023-04-23T04:12:31;5.95;;;2.05;;
37831;SDS011;23671;38.090;-122.570;2023-04-23T04:14:58;3.85;;;1.48;;
37831;SDS011;23671;38.090;-122.570;2023-04-23T04:19:53;3.63;;;1.63;;
37831;SDS011;23671;38.090;-122.570;2023-04-23T04:22:20;3.97;;;1.40;;
37831;SDS011;23671;38.090;-122.570;2023-04-23T04:24:48;6.80;;;1.50;;
37831;SDS011;23671;38.090;-122.570;2023-04-23T04:27:17;3.72;;;1.40;;
37831;SDS011;23671;38.090;-122.570;2023-04-23T04:29:44;3.80;;;1.55;;
37831;SDS011;23671;38.090;-122.570;2023-04-23T04:32:11;4.72;;;1.38;;
37831;SDS011;23671;38.090;-122.570;2023-04-23T04:34:38;4.95;;;1.35;;
37831;SDS011;23671;38.090;-122.570;2023-04-23T04:37:05;7.30;;;2.03;;
37831;SDS011;23671;38.090;-122.570;2023-04-23T04:39:34;3.63;;;1.20;;
37831;SDS011;23671;38.090;-122.570;2023-04-23T04:42:01;6.15;;;1.70;;
37831;SDS011;23671;38.090;-122.570;2023-04-23T04:44:30;3.40;;;1.48;;
37831;SDS011;23671;38.090;-122.570;2023-04-23T04:46:58;5.38;;;1.45;;
37831;SDS011;23671;38.090;-122.570;2023-04-23T04:49:25;6.00;;;1.55;;
37831;SDS011;23671;38.090;-122.570;2023-04-23T04:51:52;6.88;;;1.65;;
37831;SDS011;23671;38.090;-122.570;2023-04-23T04:54:20;6.10;;;1.60;;
37831;SDS011;23671;38.090;-122.570;2023-04-23T04:56:47;4.90;;;1.42;;
37831;SDS011;23671;38.090;-122.570;2023-04-23T04:59:14;4.43;;;1.52;;
37831;SDS011;23671;38.090;-122.570;2023-04-23T05:01:41;5.13;;;1.50;;
37831;SDS011;23671;38.090;-122.570;2023-04-23T05:04:08;3.65;;;1.50;;
37831;SDS011;23671;38.090;-122.570;2023-04-23T05:06:35;7.85;;;1.85;;
37831;SDS011;23671;38.090;-122.570;2023-04-23T05:09:02;3.40;;;1.30;;
37831;SDS011;23671;38.090;-122.570;2023-04-23T05:11:29;5.07;;;2.00;;
37831;SDS011;23671;38.090;-122.570;2023-04-23T05:13:57;6.10;;;1.80;;
37831;SDS011;23671;38.090;-122.570;2023-04-23T05:16:24;4.88;;;1.52;;
37831;SDS011;23671;38.090;-122.570;2023-04-23T05:18:51;3.63;;;1.15;;
37831;SDS011;23671;38.090;-122.570;2023-04-23T05:21:18;5.00;;;1.65;;
37831;SDS011;23671;38.090;-122.570;2023-04-23T05:23:45;6.03;;;1.60;;
37831;SDS011;23671;38.090;-122.570;2023-04-23T05:26:14;3.60;;;1.30;;
37831;SDS011;23671;38.090;-122.570;2023-04-23T05:28:42;4.53;;;1.30;;
37831;SDS011;23671;38.090;-122.570;2023-04-23T05:31:09;4.65;;;1.42;;
37831;SDS011;23671;38.090;-122.570;2023-04-23T05:33:37;4.95;;;1.58;;
37831;SDS011;23671;38.090;-122.570;2023-04-23T05:36:04;4.15;;;1.30;;
37831;SDS011;23671;38.090;-122.570;2023-04-23T05:38:32;3.58;;;1.40;;
37831;SDS011;23671;38.090;-122.570;2023-04-23T05:40:59;4.75;;;1.60;;
37831;SDS011;23671;38.090;-122.570;2023-04-23T05:43:26;6.22;;;1.30;;
37831;SDS011;23671;38.090;-122.570;2023-04-23T05:45:53;5.22;;;1.90;;
37831;SDS011;23671;38.090;-122.570;2023-04-23T05:48:20;5.18;;;1.40;;
37831;SDS011;23671;38.090;-122.570;2023-04-23T05:50:47;3.65;;;1.30;;
37831;SDS011;23671;38.090;-122.570;2023-04-23T05:53:14;4.82;;;1.52;;
37831;SDS011;23671;38.090;-122.570;2023-04-23T05:55:41;3.33;;;1.45;;
37831;SDS011;23671;38.090;-122.570;2023-04-23T05:58:08;4.45;;;1.60;;
37831;SDS011;23671;38.090;-122.570;2023-04-23T06:00:35;3.55;;;1.30;;
37831;SDS011;23671;38.090;-122.570;2023-04-23T06:03:05;3.60;;;1.45;;
37831;SDS011;23671;38.090;-122.570;2023-04-23T06:05:32;3.78;;;1.25;;
37831;SDS011;23671;38.090;-122.570;2023-04-23T06:08:00;3.53;;;1.43;;
37831;SDS011;23671;38.090;-122.570;2023-04-23T06:10:27;3.83;;;1.25;;
37831;SDS011;23671;38.090;-122.570;2023-04-23T06:12:54;4.57;;;1.30;;
37831;SDS011;23671;38.090;-122.570;2023-04-23T06:15:21;4.32;;;1.52;;
37831;SDS011;23671;38.090;-122.570;2023-04-23T06:17:51;3.97;;;1.63;;
37831;SDS011;23671;38.090;-122.570;2023-04-23T06:20:18;3.05;;;1.38;;
37831;SDS011;23671;38.090;-122.570;2023-04-23T06:22:45;4.13;;;1.33;;
37831;SDS011;23671;38.090;-122.570;2023-04-23T06:25:12;4.50;;;1.30;;
37831;SDS011;23671;38.090;-122.570;2023-04-23T06:27:39;4.55;;;1.45;;
37831;SDS011;23671;38.090;-122.570;2023-04-23T06:30:07;2.83;;;1.33;;
37831;SDS011;23671;38.090;-122.570;2023-04-23T06:32:34;5.95;;;1.42;;
37831;SDS011;23671;38.090;-122.570;2023-04-23T06:35:01;2.92;;;0.98;;
37831;SDS011;23671;38.090;-122.570;2023-04-23T06:37:28;6.05;;;1.40;;
37831;SDS011;23671;38.090;-122.570;2023-04-23T06:39:56;4.45;;;1.30;;
37831;SDS011;23671;38.090;-122.570;2023-04-23T06:42:24;3.00;;;0.97;;
37831;SDS011;23671;38.090;-122.570;2023-04-23T06:44:51;2.75;;;1.60;;
37831;SDS011;23671;38.090;-122.570;2023-04-23T06:47:18;4.88;;;1.25;;
37831;SDS011;23671;38.090;-122.570;2023-04-23T06:49:45;5.32;;;1.33;;
37831;SDS011;23671;38.090;-122.570;2023-04-23T06:52:12;5.43;;;1.23;;
37831;SDS011;23671;38.090;-122.570;2023-04-23T06:54:39;6.18;;;1.50;;
37831;SDS011;23671;38.090;-122.570;2023-04-23T06:57:06;3.83;;;1.30;;
37831;SDS011;23671;38.090;-122.570;2023-04-23T06:59:34;5.22;;;1.48;;
37831;SDS011;23671;38.090;-122.570;2023-04-23T07:02:01;3.08;;;1.23;;
37831;SDS011;23671;38.090;-122.570;2023-04-23T07:04:28;3.90;;;1.23;;
37831;SDS011;23671;38.090;-122.570;2023-04-23T07:06:55;4.22;;;1.27;;
37831;SDS011;23671;38.090;-122.570;2023-04-23T07:09:22;4.65;;;1.27;;
37831;SDS011;23671;38.090;-122.570;2023-04-23T07:11:49;5.35;;;1.20;;
37831;SDS011;23671;38.090;-122.570;2023-04-23T07:14:17;5.88;;;1.50;;
37831;SDS011;23671;38.090;-122.570;2023-04-23T07:16:44;3.55;;;1.20;;
37831;SDS011;23671;38.090;-122.570;2023-04-23T07:19:11;3.20;;;1.42;;
37831;SDS011;23671;38.090;-122.570;2023-04-23T07:21:38;3.88;;;1.80;;
37831;SDS011;23671;38.090;-122.570;2023-04-23T07:24:05;4.20;;;1.33;;
37831;SDS011;23671;38.090;-122.570;2023-04-23T07:26:32;3.13;;;0.90;;
37831;SDS011;23671;38.090;-122.570;2023-04-23T07:29:00;3.83;;;1.13;;
37831;SDS011;23671;38.090;-122.570;2023-04-23T07:31:32;2.60;;;0.93;;
37831;SDS011;23671;38.090;-122.570;2023-04-23T07:33:59;2.92;;;0.80;;
37831;SDS011;23671;38.090;-122.570;2023-04-23T07:36:26;2.35;;;1.00;;
37831;SDS011;23671;38.090;-122.570;2023-04-23T07:38:53;3.38;;;1.33;;
37831;SDS011;23671;38.090;-122.570;2023-04-23T07:41:20;3.25;;;1.08;;
37831;SDS011;23671;38.090;-122.570;2023-04-23T07:43:47;5.15;;;1.10;;
37831;SDS011;23671;38.090;-122.570;2023-04-23T07:46:15;5.25;;;1.17;;
37831;SDS011;23671;38.090;-122.570;2023-04-23T07:48:42;2.47;;;0.90;;
37831;SDS011;23671;38.090;-122.570;2023-04-23T07:51:09;3.30;;;1.38;;
37831;SDS011;23671;38.090;-122.570;2023-04-23T07:53:36;2.13;;;1.02;;
37831;SDS011;23671;38.090;-122.570;2023-04-23T07:56:03;3.35;;;1.00;;
37831;SDS011;23671;38.090;-122.570;2023-04-23T07:58:31;3.60;;;1.23;;
37831;SDS011;23671;38.090;-122.570;2023-04-23T08:01:00;3.20;;;1.30;;
37831;SDS011;23671;38.090;-122.570;2023-04-23T08:03:27;2.57;;;0.90;;
37831;SDS011;23671;38.090;-122.570;2023-04-23T08:05:54;2.92;;;1.00;;
37831;SDS011;23671;38.090;-122.570;2023-04-23T08:08:21;2.47;;;0.90;;
37831;SDS011;23671;38.090;-122.570;2023-04-23T08:10:48;6.07;;;1.00;;
37831;SDS011;23671;38.090;-122.570;2023-04-23T08:13:15;2.78;;;1.13;;
37831;SDS011;23671;38.090;-122.570;2023-04-23T08:15:42;4.20;;;1.10;;
37831;SDS011;23671;38.090;-122.570;2023-04-23T08:18:09;4.75;;;1.02;;
37831;SDS011;23671;38.090;-122.570;2023-04-23T08:20:36;5.22;;;1.02;;
37831;SDS011;23671;38.090;-122.570;2023-04-23T08:23:03;2.00;;;0.88;;
37831;SDS011;23671;38.090;-122.570;2023-04-23T08:25:31;4.05;;;1.15;;
37831;SDS011;23671;38.090;-122.570;2023-04-23T08:27:58;3.10;;;1.15;;
37831;SDS011;23671;38.090;-122.570;2023-04-23T08:30:26;2.17;;;0.95;;
37831;SDS011;23671;38.090;-122.570;2023-04-23T08:32:53;1.02;;;0.70;;
37831;SDS011;23671;38.090;-122.570;2023-04-23T08:35:21;2.28;;;0.85;;
37831;SDS011;23671;38.090;-122.570;2023-04-23T08:37:49;2.90;;;1.20;;
37831;SDS011;23671;38.090;-122.570;2023-04-23T08:40:16;4.00;;;0.93;;
37831;SDS011;23671;38.090;-122.570;2023-04-23T08:42:52;2.47;;;1.10;;
37831;SDS011;23671;38.090;-122.570;2023-04-23T08:45:20;2.85;;;1.10;;
37831;SDS011;23671;38.090;-122.570;2023-04-23T08:47:48;2.10;;;0.80;;
37831;SDS011;23671;38.090;-122.570;2023-04-23T08:50:16;4.07;;;0.93;;
37831;SDS011;23671;38.090;-122.570;2023-04-23T08:52:54;3.25;;;1.20;;
37831;SDS011;23671;38.090;-122.570;2023-04-23T08:55:22;4.45;;;1.02;;
37831;SDS011;23671;38.090;-122.570;2023-04-23T08:57:50;2.95;;;1.00;;
37831;SDS011;23671;38.090;-122.570;2023-04-23T09:00:18;2.78;;;1.00;;
37831;SDS011;23671;38.090;-122.570;2023-04-23T09:02:47;2.47;;;0.80;;
37831;SDS011;23671;38.090;-122.570;2023-04-23T09:05:14;1.75;;;0.73;;
37831;SDS011;23671;38.090;-122.570;2023-04-23T09:07:42;1.73;;;0.75;;
37831;SDS011;23671;38.090;-122.570;2023-04-23T09:10:10;3.33;;;1.00;;
37831;SDS011;23671;38.090;-122.570;2023-04-23T09:12:38;5.53;;;1.30;;
37831;SDS011;23671;38.090;-122.570;2023-04-23T09:17:40;2.58;;;0.80;;
37831;SDS011;23671;38.090;-122.570;2023-04-23T09:20:09;3.45;;;1.25;;
37831;SDS011;23671;38.090;-122.570;2023-04-23T09:22:44;2.70;;;0.80;;
37831;SDS011;23671;38.090;-122.570;2023-04-23T09:25:12;2.75;;;1.00;;
37831;SDS011;23671;38.090;-122.570;2023-04-23T09:27:43;3.60;;;0.90;;
37831;SDS011;23671;38.090;-122.570;2023-04-23T09:30:12;1.70;;;0.80;;
37831;SDS011;23671;38.090;-122.570;2023-04-23T09:32:40;2.13;;;0.88;;
37831;SDS011;23671;38.090;-122.570;2023-04-23T09:35:09;3.92;;;1.00;;
37831;SDS011;23671;38.090;-122.570;2023-04-23T09:37:42;3.25;;;0.90;;
37831;SDS011;23671;38.090;-122.570;2023-04-23T09:40:13;2.08;;;0.75;;
37831;SDS011;23671;38.090;-122.570;2023-04-23T09:42:46;2.97;;;0.70;;
37831;SDS011;23671;38.090;-122.570;2023-04-23T09:45:14;2.38;;;1.00;;
37831;SDS011;23671;38.090;-122.570;2023-04-23T09:47:48;2.58;;;0.70;;
37831;SDS011;23671;38.090;-122.570;2023-04-23T09:50:18;2.10;;;0.98;;
37831;SDS011;23671;38.090;-122.570;2023-04-23T09:52:56;2.03;;;0.93;;
37831;SDS011;23671;38.090;-122.570;2023-04-23T09:55:29;3.30;;;0.95;;
37831;SDS011;23671;38.090;-122.570;2023-04-23T09:58:10;5.13;;;1.00;;
37831;SDS011;23671;38.090;-122.570;2023-04-23T10:00:39;2.47;;;0.63;;
37831;SDS011;23671;38.090;-122.570;2023-04-23T10:03:07;2.28;;;0.70;;
37831;SDS011;23671;38.090;-122.570;2023-04-23T10:05:39;1.73;;;0.80;;
37831;SDS011;23671;38.090;-122.570;2023-04-23T10:08:07;1.38;;;0.60;;
37831;SDS011;23671;38.090;-122.570;2023-04-23T10:10:35;2.78;;;0.82;;
37831;SDS011;23671;38.090;-122.570;2023-04-23T10:13:02;2.47;;;0.60;;
37831;SDS011;23671;38.090;-122.570;2023-04-23T10:15:29;3.10;;;0.70;;
37831;SDS011;23671;38.090;-122.570;2023-04-23T10:17:56;1.73;;;0.65;;
37831;SDS011;23671;38.090;-122.570;2023-04-23T10:20:24;2.33;;;0.70;;
37831;SDS011;23671;38.090;-122.570;2023-04-23T10:22:52;2.40;;;0.60;;
37831;SDS011;23671;38.090;-122.570;2023-04-23T10:25:22;1.75;;;0.63;;
37831;SDS011;23671;38.090;-122.570;2023-04-23T10:27:50;1.77;;;0.45;;
37831;SDS011;23671;38.090;-122.570;2023-04-23T10:30:21;1.42;;;0.70;;
37831;SDS011;23671;38.090;-122.570;2023-04-23T10:32:48;2.08;;;0.70;;
37831;SDS011;23671;38.090;-122.570;2023-04-23T10:35:15;2.33;;;0.65;;
37831;SDS011;23671;38.090;-122.570;2023-04-23T10:37:43;2.53;;;0.75;;
37831;SDS011;23671;38.090;-122.570;2023-04-23T10:40:13;0.93;;;0.60;;
37831;SDS011;23671;38.090;-122.570;2023-04-23T10:42:43;3.00;;;0.93;;
37831;SDS011;23671;38.090;-122.570;2023-04-23T10:45:15;1.88;;;0.70;;
37831;SDS011;23671;38.090;-122.570;2023-04-23T10:47:43;1.85;;;0.55;;
37831;SDS011;23671;38.090;-122.570;2023-04-23T10:50:21;1.80;;;0.60;;
37831;SDS011;23671;38.090;-122.570;2023-04-23T10:52:50;2.10;;;0.73;;
37831;SDS011;23671;38.090;-122.570;2023-04-23T10:55:19;1.23;;;0.52;;
37831;SDS011;23671;38.090;-122.570;2023-04-23T10:57:58;1.35;;;0.52;;
37831;SDS011;23671;38.090;-122.570;2023-04-23T11:00:41;0.75;;;0.43;;
37831;SDS011;23671;38.090;-122.570;2023-04-23T11:06:06;2.60;;;0.90;;
37831;SDS011;23671;38.090;-122.570;2023-04-23T11:08:34;2.88;;;0.60;;
37831;SDS011;23671;38.090;-122.570;2023-04-23T11:11:05;2.90;;;0.70;;
37831;SDS011;23671;38.090;-122.570;2023-04-23T11:13:33;1.30;;;0.60;;
37831;SDS011;23671;38.090;-122.570;2023-04-23T11:16:13;2.15;;;0.73;;
37831;SDS011;23671;38.090;-122.570;2023-04-23T11:24:37;0.93;;;0.40;;
37831;SDS011;23671;38.090;-122.570;2023-04-23T11:27:16;1.17;;;0.60;;
37831;SDS011;23671;38.090;-122.570;2023-04-23T11:29:45;1.48;;;0.30;;
37831;SDS011;23671;38.090;-122.570;2023-04-23T11:32:14;2.08;;;0.60;;
37831;SDS011;23671;38.090;-122.570;2023-04-23T11:34:42;2.45;;;0.50;;
37831;SDS011;23671;38.090;-122.570;2023-04-23T11:37:12;0.95;;;0.60;;
37831;SDS011;23671;38.090;-122.570;2023-04-23T11:39:40;1.85;;;0.57;;
37831;SDS011;23671;38.090;-122.570;2023-04-23T11:42:11;1.92;;;0.47;;
37831;SDS011;23671;38.090;-122.570;2023-04-23T11:44:39;1.02;;;0.30;;
37831;SDS011;23671;38.090;-122.570;2023-04-23T11:47:10;0.68;;;0.40;;
37831;SDS011;23671;38.090;-122.570;2023-04-23T11:49:40;0.98;;;0.35;;
37831;SDS011;23671;38.090;-122.570;2023-04-23T11:52:08;1.25;;;0.30;;
37831;SDS011;23671;38.090;-122.570;2023-04-23T11:54:38;0.68;;;0.35;;
37831;SDS011;23671;38.090;-122.570;2023-04-23T11:57:06;0.65;;;0.43;;
37831;SDS011;23671;38.090;-122.570;2023-04-23T11:59:34;1.85;;;0.50;;
37831;SDS011;23671;38.090;-122.570;2023-04-23T12:02:01;0.80;;;0.20;;
37831;SDS011;23671;38.090;-122.570;2023-04-23T12:04:28;1.73;;;0.25;;
37831;SDS011;23671;38.090;-122.570;2023-04-23T12:06:56;1.90;;;0.68;;
37831;SDS011;23671;38.090;-122.570;2023-04-23T12:09:25;0.77;;;0.38;;
37831;SDS011;23671;38.090;-122.570;2023-04-23T12:11:54;0.22;;;0.22;;
37831;SDS011;23671;38.090;-122.570;2023-04-23T12:14:26;1.33;;;0.40;;
37831;SDS011;23671;38.090;-122.570;2023-04-23T12:16:54;1.50;;;0.40;;
37831;SDS011;23671;38.090;-122.570;2023-04-23T12:19:29;0.20;;;0.20;;
37831;SDS011;23671;38.090;-122.570;2023-04-23T12:21:58;0.70;;;0.20;;
37831;SDS011;23671;38.090;-122.570;2023-04-23T12:24:27;0.55;;;0.45;;
37831;SDS011;23671;38.090;-122.570;2023-04-23T12:26:56;0.30;;;0.17;;
37831;SDS011;23671;38.090;-122.570;2023-04-23T12:29:28;0.60;;;0.45;;
37831;SDS011;23671;38.090;-122.570;2023-04-23T12:31:59;0.63;;;0.20;;
37831;SDS011;23671;38.090;-122.570;2023-04-23T12:34:26;0.52;;;0.20;;
37831;SDS011;23671;38.090;-122.570;2023-04-23T12:36:54;0.20;;;0.20;;
37831;SDS011;23671;38.090;-122.570;2023-04-23T12:39:26;0.32;;;0.17;;
37831;SDS011;23671;38.090;-122.570;2023-04-23T12:44:29;0.22;;;0.20;;
37831;SDS011;23671;38.090;-122.570;2023-04-23T12:47:07;0.20;;;0.20;;
37831;SDS011;23671;38.090;-122.570;2023-04-23T12:49:36;0.20;;;0.10;;
37831;SDS011;23671;38.090;-122.570;2023-04-23T12:52:05;0.40;;;0.30;;
37831;SDS011;23671;38.090;-122.570;2023-04-23T12:54:36;0.30;;;0.30;;
37831;SDS011;23671;38.090;-122.570;2023-04-23T12:57:05;0.90;;;0.30;;
37831;SDS011;23671;38.090;-122.570;2023-04-23T12:59:36;0.30;;;0.30;;
37831;SDS011;23671;38.090;-122.570;2023-04-23T13:02:03;0.57;;;0.10;;
37831;SDS011;23671;38.090;-122.570;2023-04-23T13:04:31;0.25;;;0.20;;
37831;SDS011;23671;38.090;-122.570;2023-04-23T13:07:00;0.10;;;0.10;;
37831;SDS011;23671;38.090;-122.570;2023-04-23T13:09:28;1.40;;;0.20;;
37831;SDS011;23671;38.090;-122.570;2023-04-23T13:11:55;0.20;;;0.10;;
37831;SDS011;23671;38.090;-122.570;2023-04-23T13:14:24;0.93;;;0.20;;
37831;SDS011;23671;38.090;-122.570;2023-04-23T13:16:52;2.05;;;0.50;;
37831;SDS011;23671;38.090;-122.570;2023-04-23T13:19:19;0.65;;;0.32;;
37831;SDS011;23671;38.090;-122.570;2023-04-23T13:21:46;0.98;;;0.20;;
37831;SDS011;23671;38.090;-122.570;2023-04-23T13:24:13;0.85;;;0.30;;
37831;SDS011;23671;38.090;-122.570;2023-04-23T13:26:40;0.80;;;0.25;;
37831;SDS011;23671;38.090;-122.570;2023-04-23T13:29:07;0.32;;;0.30;;
37831;SDS011;23671;38.090;-122.570;2023-04-23T13:31:34;0.20;;;0.17;;
37831;SDS011;23671;38.090;-122.570;2023-04-23T13:34:01;0.75;;;0.50;;
37831;SDS011;23671;38.090;-122.570;2023-04-23T13:36:28;0.70;;;0.20;;
37831;SDS011;23671;38.090;-122.570;2023-04-23T13:38:55;1.40;;;0.20;;
37831;SDS011;23671;38.090;-122.570;2023-04-23T13:41:22;1.15;;;0.38;;
37831;SDS011;23671;38.090;-122.570;2023-04-23T13:43:49;0.70;;;0.10;;
37831;SDS011;23671;38.090;-122.570;2023-04-23T13:46:16;0.45;;;0.30;;
37831;SDS011;23671;38.090;-122.570;2023-04-23T13:48:44;0.73;;;0.20;;
37831;SDS011;23671;38.090;-122.570;2023-04-23T13:51:11;0.85;;;0.20;;
37831;SDS011;23671;38.090;-122.570;2023-04-23T13:53:38;0.25;;;0.20;;
37831;SDS011;23671;38.090;-122.570;2023-04-23T13:56:05;1.17;;;0.10;;
37831;SDS011;23671;38.090;-122.570;2023-04-23T13:58:32;1.25;;;0.35;;
37831;SDS011;23671;38.090;-122.570;2023-04-23T14:00:59;0.40;;;0.20;;
37831;SDS011;23671;38.090;-122.570;2023-04-23T14:03:26;0.73;;;0.30;;
37831;SDS011;23671;38.090;-122.570;2023-04-23T14:05:53;0.63;;;0.43;;
37831;SDS011;23671;38.090;-122.570;2023-04-23T14:08:20;1.13;;;0.30;;
37831;SDS011;23671;38.090;-122.570;2023-04-23T14:10:47;0.50;;;0.40;;
37831;SDS011;23671;38.090;-122.570;2023-04-23T14:13:14;1.48;;;0.57;;
37831;SDS011;23671;38.090;-122.570;2023-04-23T14:15:41;0.88;;;0.30;;
37831;SDS011;23671;38.090;-122.570;2023-04-23T14:18:09;0.45;;;0.20;;
37831;SDS011;23671;38.090;-122.570;2023-04-23T14:20:36;0.75;;;0.20;;
37831;SDS011;23671;38.090;-122.570;2023-04-23T14:23:10;0.47;;;0.20;;
37831;SDS011;23671;38.090;-122.570;2023-04-23T14:26:08;0.52;;;0.20;;
37831;SDS011;23671;38.090;-122.570;2023-04-23T14:28:45;0.32;;;0.32;;
37831;SDS011;23671;38.090;-122.570;2023-04-23T14:31:15;0.15;;;0.15;;
37831;SDS011;23671;38.090;-122.570;2023-04-23T14:33:42;0.75;;;0.20;;